createdAt,value
2023-06-10T00:00:28.746Z,14.55
2023-06-10T00:02:55.744Z,15.15
2023-06-10T00:05:22.711Z,16.73
2023-06-10T00:07:50.668Z,15.13
2023-06-10T00:10:17.865Z,12.93
2023-06-10T00:12:45.032Z,16.02
2023-06-10T00:15:12.278Z,15.52
2023-06-10T00:17:40.455Z,15.98
2023-06-10T00:20:10.361Z,14.18
2023-06-10T00:22:37.316Z,15.27
2023-06-10T00:25:05.390Z,16.08
2023-06-10T00:27:36.239Z,16.45
2023-06-10T00:30:05.551Z,13.27
2023-06-10T00:32:32.555Z,15.73
2023-06-10T00:34:59.471Z,14.82
2023-06-10T00:37:26.368Z,15.80
2023-06-10T00:39:53.474Z,17.02
2023-06-10T00:42:20.401Z,13.07
2023-06-10T00:44:47.946Z,13.80
2023-06-10T00:47:14.897Z,12.00
2023-06-10T00:49:42.051Z,15.00
2023-06-10T00:52:09.487Z,14.48
2023-06-10T00:54:36.628Z,15.10
2023-06-10T00:57:03.584Z,16.50
2023-06-10T00:59:30.929Z,12.10
2023-06-10T01:01:58.174Z,17.70
2023-06-10T01:04:26.151Z,15.52
2023-06-10T01:07:01.687Z,16.40
2023-06-10T01:09:37.409Z,16.17
2023-06-10T01:12:11.514Z,16.35
2023-06-10T01:14:39.808Z,18.70
2023-06-10T01:17:08.608Z,19.33
2023-06-10T01:19:37.648Z,18.02
2023-06-10T01:22:05.049Z,14.80
2023-06-10T01:24:35.354Z,19.15
2023-06-10T01:27:04.444Z,16.88
2023-06-10T01:29:47.280Z,14.93
2023-06-10T01:32:19.795Z,13.80
2023-06-10T01:34:47.011Z,18.75
2023-06-10T01:37:15.105Z,15.05
2023-06-10T01:39:42.178Z,14.40
2023-06-10T01:42:09.604Z,15.13
2023-06-10T01:44:36.803Z,14.25
2023-06-10T01:47:03.790Z,15.98
2023-06-10T01:49:31.131Z,15.40
2023-06-10T01:51:57.994Z,15.35
2023-06-10T01:54:24.819Z,14.35
2023-06-10T01:56:52.200Z,12.70
2023-06-10T01:59:19.124Z,14.93
2023-06-10T02:01:46.221Z,12.82
2023-06-10T02:04:13.079Z,16.15
2023-06-10T02:06:39.942Z,16.52
2023-06-10T02:09:07.361Z,13.60
2023-06-10T02:11:34.235Z,14.98
2023-06-10T02:14:01.066Z,13.18
2023-06-10T02:16:27.955Z,16.38
2023-06-10T02:18:55.874Z,16.15
2023-06-10T02:21:22.777Z,13.68
2023-06-10T02:23:49.731Z,17.35
2023-06-10T02:26:16.571Z,13.98
2023-06-10T02:28:44.111Z,11.15
2023-06-10T02:31:11.012Z,14.50
2023-06-10T02:33:41.279Z,14.98
2023-06-10T02:36:08.616Z,13.20
2023-06-10T02:38:35.541Z,13.63
2023-06-10T02:41:02.404Z,17.27
2023-06-10T02:43:29.379Z,11.80
2023-06-10T02:45:56.304Z,13.43
2023-06-10T02:48:24.727Z,13.95
2023-06-10T02:50:51.600Z,13.75
2023-06-10T02:53:18.431Z,14.40
2023-06-10T02:55:45.398Z,12.05
2023-06-10T02:58:12.241Z,13.73
2023-06-10T03:00:42.180Z,14.45
2023-06-10T03:03:09.586Z,13.43
2023-06-10T03:05:36.633Z,16.15
2023-06-10T03:08:03.534Z,15.80
2023-06-10T03:10:30.424Z,13.63
2023-06-10T03:12:57.284Z,13.35
2023-06-10T03:15:25.608Z,17.85
2023-06-10T03:17:52.534Z,18.83
2023-06-10T03:20:19.466Z,14.60
2023-06-10T03:22:46.463Z,16.63
2023-06-10T03:25:15.385Z,15.55
2023-06-10T03:27:43.294Z,14.02
2023-06-10T03:30:10.515Z,14.73
2023-06-10T03:32:37.955Z,14.40
2023-06-10T03:35:05.210Z,13.27
2023-06-10T03:37:32.042Z,16.13
2023-06-10T03:39:58.849Z,15.45
2023-06-10T03:42:26.076Z,17.95
2023-06-10T03:44:53.162Z,14.60
2023-06-10T03:47:19.984Z,11.95
2023-06-10T03:49:46.847Z,13.05
2023-06-10T03:52:13.695Z,13.68
2023-06-10T03:54:40.502Z,14.20
2023-06-10T03:57:07.423Z,12.80
2023-06-10T03:59:34.257Z,14.82
2023-06-10T04:02:01.824Z,13.75
2023-06-10T04:04:28.677Z,14.32
2023-06-10T04:06:55.529Z,14.40
2023-06-10T04:09:22.451Z,14.10
2023-06-10T04:11:49.314Z,14.63
2023-06-10T04:14:16.345Z,13.43
2023-06-10T04:16:44.145Z,12.25
2023-06-10T04:19:11.674Z,16.02
2023-06-10T04:21:38.587Z,16.10
2023-06-10T04:24:05.758Z,14.02
2023-06-10T04:26:32.644Z,18.30
2023-06-10T04:28:59.513Z,17.70
2023-06-10T04:31:26.372Z,15.55
2023-06-10T04:33:53.277Z,16.40
2023-06-10T04:36:20.267Z,14.75
2023-06-10T04:38:48.057Z,12.80
2023-06-10T04:41:14.915Z,15.68
2023-06-10T04:43:41.838Z,12.30
2023-06-10T04:46:09.376Z,14.50
2023-06-10T04:48:37.002Z,15.30
2023-06-10T04:51:03.960Z,13.50
2023-06-10T04:53:30.937Z,16.13
2023-06-10T04:55:58.719Z,14.65
2023-06-10T04:58:26.021Z,16.52
2023-06-10T05:00:52.902Z,14.80
2023-06-10T05:03:19.852Z,13.32
2023-06-10T05:05:46.773Z,12.85
2023-06-10T05:08:13.638Z,16.38
2023-06-10T05:10:40.507Z,14.57
2023-06-10T05:13:07.432Z,17.90
2023-06-10T05:15:34.465Z,14.45
2023-06-10T05:18:03.779Z,14.25
2023-06-10T05:20:31.026Z,15.43
2023-06-10T05:22:57.979Z,17.98
2023-06-10T05:25:26.512Z,16.70
2023-06-10T05:27:53.349Z,14.00
2023-06-10T05:30:20.301Z,13.40
2023-06-10T05:32:47.186Z,14.52
2023-06-10T05:35:14.243Z,19.45
2023-06-10T05:37:41.104Z,16.92
2023-06-10T05:40:08.445Z,16.23
2023-06-10T05:42:35.303Z,15.90
2023-06-10T05:45:02.473Z,14.63
2023-06-10T05:47:29.361Z,13.50
2023-06-10T05:49:56.490Z,14.30
2023-06-10T05:52:23.364Z,14.85
2023-06-10T05:54:51.051Z,15.52
2023-06-10T05:57:17.907Z,14.60
2023-06-10T05:59:44.893Z,17.55
2023-06-10T06:02:11.837Z,15.38
2023-06-10T06:04:38.902Z,14.60
2023-06-10T06:07:06.927Z,18.63
2023-06-10T06:09:33.808Z,16.40
2023-06-10T06:12:00.692Z,20.08
2023-06-10T06:14:27.536Z,15.73
2023-06-10T06:16:54.373Z,16.88
2023-06-10T06:19:21.231Z,16.65
2023-06-10T06:21:48.078Z,14.13
2023-06-10T06:24:15.377Z,14.38
2023-06-10T06:26:42.362Z,16.55
2023-06-10T06:29:09.253Z,14.80
2023-06-10T06:31:36.097Z,17.40
2023-06-10T06:34:03.184Z,16.73
2023-06-10T06:36:30.048Z,19.48
2023-06-10T06:38:56.921Z,18.55
2023-06-10T06:41:23.810Z,15.95
2023-06-10T06:43:50.672Z,17.08
2023-06-10T06:46:18.132Z,14.38
2023-06-10T06:48:45.438Z,15.95
2023-06-10T06:51:12.428Z,15.40
2023-06-10T06:53:45.377Z,13.75
2023-06-10T06:56:12.904Z,13.00
2023-06-10T06:58:39.719Z,13.43
2023-06-10T07:01:06.812Z,14.52
2023-06-10T07:03:33.744Z,14.98
2023-06-10T07:06:00.869Z,13.80
2023-06-10T07:08:27.768Z,15.52
2023-06-10T07:10:55.273Z,14.20
2023-06-10T07:13:22.220Z,20.73
2023-06-10T07:15:49.032Z,12.32
2023-06-10T07:18:16.290Z,16.45
2023-06-10T07:20:43.171Z,18.55
2023-06-10T07:23:10.077Z,14.93
2023-06-10T07:25:36.965Z,15.45
2023-06-10T07:28:03.874Z,13.90
2023-06-10T07:30:30.900Z,12.90
2023-06-10T07:32:57.821Z,18.40
2023-06-10T07:35:24.950Z,14.25
2023-06-10T07:37:51.849Z,18.13
2023-06-10T07:40:18.746Z,15.48
2023-06-10T07:42:45.669Z,12.68
2023-06-10T07:45:12.831Z,14.43
2023-06-10T07:47:40.070Z,16.63
2023-06-10T07:50:07.069Z,17.55
2023-06-10T07:52:33.959Z,16.52
2023-06-10T07:55:00.929Z,15.38
2023-06-10T07:57:27.778Z,16.05
2023-06-10T07:59:56.094Z,13.10
2023-06-10T08:02:25.612Z,14.70
2023-06-10T08:04:52.741Z,12.77
2023-06-10T08:07:20.313Z,16.00
2023-06-10T08:09:47.206Z,13.45
2023-06-10T08:12:14.161Z,13.82
2023-06-10T08:14:41.062Z,13.18
2023-06-10T08:17:08.206Z,15.82
2023-06-10T08:19:35.139Z,13.07
2023-06-10T08:22:02.061Z,16.00
2023-06-10T08:24:28.934Z,13.68
2023-06-10T08:26:57.312Z,15.90
2023-06-10T08:29:24.543Z,14.23
2023-06-10T08:31:51.587Z,11.05
2023-06-10T08:34:18.467Z,14.43
2023-06-10T08:36:46.630Z,16.13
2023-06-10T08:39:13.681Z,15.98
2023-06-10T08:41:43.801Z,13.52
2023-06-10T08:44:16.496Z,11.80
2023-06-10T08:46:44.708Z,14.95
2023-06-10T08:49:11.812Z,13.50
2023-06-10T08:51:39.094Z,13.57
2023-06-10T08:54:12.115Z,12.45
2023-06-10T08:56:40.679Z,23.60
2023-06-10T08:59:07.685Z,13.02
2023-06-10T09:01:34.844Z,11.27
2023-06-10T09:04:02.705Z,13.02
2023-06-10T09:06:29.561Z,13.13
2023-06-10T09:08:56.601Z,16.60
2023-06-10T09:11:23.546Z,13.82
2023-06-10T09:13:50.727Z,11.15
2023-06-10T09:16:18.112Z,12.77
2023-06-10T09:18:45.096Z,14.23
2023-06-10T09:21:12.452Z,14.48
2023-06-10T09:23:39.378Z,16.40
2023-06-10T09:26:10.750Z,13.25
2023-06-10T09:28:37.767Z,12.32
2023-06-10T09:31:06.554Z,11.43
2023-06-10T09:33:33.845Z,14.05
2023-06-10T09:36:02.798Z,16.45
2023-06-10T09:38:34.885Z,16.13
2023-06-10T09:41:04.487Z,14.50
2023-06-10T09:43:41.400Z,13.07
2023-06-10T09:46:08.730Z,11.70
2023-06-10T09:48:36.221Z,17.73
2023-06-10T09:51:03.121Z,14.13
2023-06-10T09:53:34.236Z,13.48
2023-06-10T09:56:01.201Z,14.45
2023-06-10T09:58:37.619Z,13.43
2023-06-10T10:01:09.465Z,14.23
2023-06-10T10:03:44.163Z,12.43
2023-06-10T10:06:11.033Z,11.50
2023-06-10T10:08:38.016Z,11.40
2023-06-10T10:11:05.019Z,15.40
2023-06-10T10:13:34.553Z,14.88
2023-06-10T10:16:03.040Z,14.68
2023-06-10T10:18:31.585Z,10.63
2023-06-10T10:21:00.512Z,12.45
2023-06-10T10:23:36.180Z,13.35
2023-06-10T10:26:10.821Z,14.20
2023-06-10T10:28:52.532Z,12.23
2023-06-10T10:31:20.339Z,13.57
2023-06-10T10:33:53.220Z,12.18
2023-06-10T10:36:20.598Z,11.55
2023-06-10T10:38:51.687Z,15.20
2023-06-10T10:41:20.123Z,12.02
2023-06-10T10:43:47.637Z,12.40
2023-06-10T10:46:15.791Z,12.95
2023-06-10T10:48:43.175Z,13.30
2023-06-10T10:51:10.583Z,11.73
2023-06-10T10:53:40.801Z,13.85
2023-06-10T10:56:09.178Z,13.68
2023-06-10T10:58:36.479Z,14.07
2023-06-10T11:01:13.496Z,15.57
2023-06-10T11:03:48.817Z,11.40
2023-06-10T11:06:16.783Z,13.63
2023-06-10T11:08:45.059Z,10.15
2023-06-10T11:11:19.435Z,13.55
2023-06-10T11:13:59.124Z,13.95
2023-06-10T11:16:27.152Z,11.90
2023-06-10T11:18:57.236Z,9.50
2023-06-10T11:21:29.103Z,10.73
2023-06-10T11:23:58.938Z,10.85
2023-06-10T11:26:32.770Z,8.88
2023-06-10T11:28:59.803Z,12.57
2023-06-10T11:31:31.110Z,9.00
2023-06-10T11:33:59.167Z,13.27
2023-06-10T11:36:27.236Z,10.40
2023-06-10T11:38:57.880Z,11.32
2023-06-10T11:41:26.832Z,11.27
2023-06-10T11:43:54.961Z,10.15
2023-06-10T11:46:21.858Z,10.50
2023-06-10T11:48:58.773Z,11.27
2023-06-10T11:51:29.805Z,8.02
2023-06-10T11:53:56.741Z,9.50
2023-06-10T11:56:24.285Z,8.88
2023-06-10T11:58:55.837Z,6.95
2023-06-10T12:01:28.957Z,8.52
2023-06-10T12:04:06.473Z,11.65
2023-06-10T12:06:40.983Z,7.72
2023-06-10T12:09:22.904Z,8.27
2023-06-10T12:12:04.742Z,8.98
2023-06-10T12:14:50.144Z,9.82
2023-06-10T12:17:17.008Z,8.30
2023-06-10T12:19:44.398Z,7.82
2023-06-10T12:22:11.410Z,9.32
2023-06-10T12:24:45.667Z,6.97
2023-06-10T12:27:13.292Z,10.45
2023-06-10T12:29:40.484Z,8.07
2023-06-10T12:32:08.681Z,7.70
2023-06-10T12:34:37.487Z,8.13
2023-06-10T12:37:05.280Z,7.30
2023-06-10T12:39:32.899Z,6.85
2023-06-10T12:42:00.139Z,7.25
2023-06-10T12:44:36.895Z,7.28
2023-06-10T12:47:11.049Z,7.93
2023-06-10T12:49:38.292Z,8.95
2023-06-10T12:52:05.773Z,8.07
2023-06-10T12:54:32.789Z,9.15
2023-06-10T12:56:59.816Z,6.22
2023-06-10T12:59:28.217Z,7.53
2023-06-10T13:01:55.485Z,5.47
2023-06-10T13:04:22.701Z,8.25
2023-06-10T13:06:50.191Z,6.35
2023-06-10T13:09:17.252Z,6.40
2023-06-10T13:11:44.252Z,8.18
2023-06-10T13:14:11.265Z,7.32
2023-06-10T13:16:39.425Z,7.63
2023-06-10T13:19:06.653Z,6.85
2023-06-10T13:21:34.742Z,8.35
2023-06-10T13:24:03.143Z,6.28
2023-06-10T13:26:30.012Z,6.97
2023-06-10T13:28:56.981Z,7.20
2023-06-10T13:31:23.956Z,6.93
2023-06-10T13:33:50.862Z,6.78
2023-06-10T13:36:17.732Z,6.47
2023-06-10T13:38:44.717Z,5.47
2023-06-10T13:41:11.719Z,7.50
2023-06-10T13:43:38.627Z,7.32
2023-06-10T13:46:05.560Z,8.13
2023-06-10T13:48:32.542Z,6.93
2023-06-10T13:51:00.664Z,7.60
2023-06-10T13:53:27.571Z,6.78
2023-06-10T13:55:54.410Z,6.00
2023-06-10T13:58:21.297Z,6.03
2023-06-10T14:00:48.514Z,6.70
2023-06-10T14:03:15.704Z,7.88
2023-06-10T14:05:42.971Z,8.05
2023-06-10T14:08:09.834Z,7.57
2023-06-10T14:10:36.766Z,8.10
2023-06-10T14:13:03.843Z,6.90
2023-06-10T14:15:31.755Z,8.40
2023-06-10T14:17:58.767Z,6.70
2023-06-10T14:20:27.812Z,7.55
2023-06-10T14:22:54.763Z,7.25
2023-06-10T14:25:21.671Z,7.03
2023-06-10T14:27:48.609Z,7.35
2023-06-10T14:30:16.074Z,7.45
2023-06-10T14:32:43.222Z,6.50
2023-06-10T14:35:11.046Z,9.48
2023-06-10T14:37:38.288Z,7.22
2023-06-10T14:40:06.193Z,7.22
2023-06-10T14:42:33.490Z,6.68
2023-06-10T14:45:00.380Z,8.88
2023-06-10T14:47:27.296Z,6.80
2023-06-10T14:49:54.226Z,6.97
2023-06-10T14:52:21.090Z,7.68
2023-06-10T14:54:47.940Z,8.63
2023-06-10T14:57:14.840Z,7.05
2023-06-10T14:59:41.674Z,6.63
2023-06-10T15:02:08.667Z,6.88
2023-06-10T15:04:36.232Z,8.25
2023-06-10T15:07:03.161Z,7.85
2023-06-10T15:09:30.159Z,7.35
2023-06-10T15:11:57.181Z,6.82
2023-06-10T15:14:24.065Z,7.53
2023-06-10T15:16:51.008Z,7.32
2023-06-10T15:19:17.984Z,6.35
2023-06-10T15:21:44.905Z,6.88
2023-06-10T15:24:11.867Z,7.40
2023-06-10T15:26:38.759Z,6.85
2023-06-10T15:29:06.288Z,7.40
2023-06-10T15:31:33.866Z,7.05
2023-06-10T15:34:01.095Z,8.52
2023-06-10T15:36:28.149Z,7.25
2023-06-10T15:38:57.048Z,9.05
2023-06-10T15:41:24.069Z,7.50
2023-06-10T15:43:51.026Z,6.90
2023-06-10T15:46:17.932Z,8.32
2023-06-10T15:48:44.772Z,8.93
2023-06-10T15:51:11.812Z,9.88
2023-06-10T15:53:38.720Z,7.00
2023-06-10T15:56:05.574Z,7.43
2023-06-10T15:58:32.429Z,7.20
2023-06-10T16:00:59.434Z,6.68
2023-06-10T16:03:26.539Z,6.75
2023-06-10T16:05:53.557Z,7.43
2023-06-10T16:08:20.486Z,7.25
2023-06-10T16:10:47.471Z,7.63
2023-06-10T16:13:14.335Z,8.05
2023-06-10T16:15:41.180Z,7.82
2023-06-10T16:18:08.502Z,6.88
2023-06-10T16:20:38.418Z,6.65
2023-06-10T16:23:05.607Z,8.13
2023-06-10T16:25:34.960Z,6.18
2023-06-10T16:28:03.223Z,7.55
2023-06-10T16:30:30.137Z,7.70
2023-06-10T16:32:57.153Z,6.55
2023-06-10T16:35:24.076Z,7.90
2023-06-10T16:37:50.906Z,7.88
2023-06-10T16:40:17.764Z,6.35
2023-06-10T16:42:44.638Z,6.13
2023-06-10T16:45:11.855Z,7.32
2023-06-10T16:47:39.016Z,6.55
2023-06-10T16:50:06.032Z,6.63
2023-06-10T16:52:32.923Z,5.93
2023-06-10T16:54:59.912Z,7.47
2023-06-10T16:57:26.785Z,6.82
2023-06-10T16:59:53.721Z,7.53
2023-06-10T17:02:21.042Z,6.25
2023-06-10T17:04:47.959Z,6.25
2023-06-10T17:07:15.236Z,7.45
2023-06-10T17:09:42.198Z,6.60
2023-06-10T17:12:09.262Z,6.35
2023-06-10T17:14:36.105Z,6.63
2023-06-10T17:17:03.104Z,6.45
2023-06-10T17:19:30.511Z,6.57
2023-06-10T17:21:58.426Z,7.47
2023-06-10T17:24:25.500Z,10.13
2023-06-10T17:26:52.403Z,10.25
2023-06-10T17:29:19.268Z,11.52
2023-06-10T17:31:46.253Z,11.95
2023-06-10T17:34:13.166Z,14.57
2023-06-10T17:36:40.054Z,11.57
2023-06-10T17:39:07.837Z,10.50
2023-06-10T17:41:34.663Z,14.32
2023-06-10T17:44:01.496Z,14.48
2023-06-10T17:46:28.438Z,15.15
2023-06-10T17:48:55.598Z,16.33
2023-06-10T17:51:23.520Z,13.43
2023-06-10T17:53:51.661Z,13.18
2023-06-10T17:56:18.548Z,13.52
2023-06-10T17:58:45.368Z,12.18
2023-06-10T18:01:12.367Z,12.50
2023-06-10T18:03:39.352Z,11.18
2023-06-10T18:06:06.311Z,11.10
2023-06-10T18:08:36.048Z,18.13
2023-06-10T18:11:04.078Z,13.85
2023-06-10T18:13:31.994Z,14.50
2023-06-10T18:16:03.384Z,12.60
2023-06-10T18:18:30.470Z,12.30
2023-06-10T18:20:58.260Z,13.27
2023-06-10T18:23:26.716Z,10.95
2023-06-10T18:25:53.569Z,13.82
2023-06-10T18:28:20.422Z,12.45
2023-06-10T18:30:47.305Z,11.68
2023-06-10T18:33:14.209Z,12.88
2023-06-10T18:35:41.175Z,13.32
2023-06-10T18:38:08.059Z,12.45
2023-06-10T18:40:34.880Z,11.68
2023-06-10T18:43:01.806Z,14.50
2023-06-10T18:45:28.764Z,12.60
2023-06-10T18:47:58.046Z,12.73
2023-06-10T18:50:25.927Z,13.48
2023-06-10T18:52:52.921Z,13.48
2023-06-10T18:55:19.976Z,12.35
2023-06-10T18:57:46.804Z,10.40
2023-06-10T19:00:14.215Z,11.02
2023-06-10T19:02:41.186Z,10.77
2023-06-10T19:05:10.770Z,12.90
2023-06-10T19:07:37.880Z,11.70
2023-06-10T19:10:04.985Z,10.60
2023-06-10T19:12:32.043Z,11.73
2023-06-10T19:14:59.004Z,9.65
2023-06-10T19:17:26.143Z,14.90
2023-06-10T19:19:53.002Z,15.85
2023-06-10T19:22:19.940Z,19.13
2023-06-10T19:24:48.305Z,19.05
2023-06-10T19:27:15.128Z,15.10
2023-06-10T19:29:41.997Z,12.75
2023-06-10T19:32:08.983Z,11.10
2023-06-10T19:34:35.941Z,12.50
2023-06-10T19:37:02.933Z,11.63
2023-06-10T19:39:29.778Z,12.35
2023-06-10T19:41:56.663Z,11.20
2023-06-10T19:44:23.584Z,10.23
2023-06-10T19:46:51.554Z,11.23
2023-06-10T19:49:18.668Z,10.63
2023-06-10T19:51:48.958Z,10.90
2023-06-10T19:54:16.080Z,11.80
2023-06-10T19:56:43.042Z,11.25
2023-06-10T19:59:09.935Z,10.63
2023-06-10T20:01:36.864Z,11.55
2023-06-10T20:04:05.742Z,10.55
2023-06-10T20:06:32.903Z,11.57
2023-06-10T20:08:59.886Z,10.77
2023-06-10T20:11:26.794Z,13.23
2023-06-10T20:13:53.727Z,14.05
2023-06-10T20:16:21.344Z,10.65
2023-06-10T20:18:52.549Z,11.45
2023-06-10T20:21:20.914Z,13.90
2023-06-10T20:23:48.397Z,11.65
2023-06-10T20:26:15.257Z,10.68
2023-06-10T20:28:42.117Z,13.73
2023-06-10T20:31:09.319Z,11.35
2023-06-10T20:33:36.343Z,11.88
2023-06-10T20:36:03.270Z,11.07
2023-06-10T20:38:30.292Z,15.85
2023-06-10T20:40:57.190Z,15.93
2023-06-10T20:43:24.171Z,16.30
2023-06-10T20:45:51.650Z,15.85
2023-06-10T20:48:18.574Z,12.77
2023-06-10T20:50:45.524Z,13.30
2023-06-10T20:53:12.746Z,13.88
2023-06-10T20:55:39.711Z,13.70
2023-06-10T20:58:06.631Z,12.35
2023-06-10T21:00:33.542Z,12.75
2023-06-10T21:03:00.881Z,14.75
2023-06-10T21:05:27.758Z,11.48
2023-06-10T21:07:54.651Z,16.60
2023-06-10T21:10:21.542Z,13.88
2023-06-10T21:12:48.473Z,14.95
2023-06-10T21:15:16.636Z,13.35
2023-06-10T21:17:43.573Z,13.68
2023-06-10T21:20:11.306Z,11.93
2023-06-10T21:22:38.478Z,13.00
2023-06-10T21:25:05.584Z,13.63
2023-06-10T21:27:32.400Z,16.75
2023-06-10T21:29:59.288Z,14.13
2023-06-10T21:32:26.785Z,12.48
2023-06-10T21:34:53.712Z,13.50
2023-06-10T21:37:20.690Z,13.50
2023-06-10T21:39:47.505Z,13.95
2023-06-10T21:42:14.339Z,10.70
2023-06-10T21:44:41.238Z,11.82
2023-06-10T21:47:08.220Z,12.18
2023-06-10T21:49:35.154Z,12.18
2023-06-10T21:52:02.097Z,12.90
2023-06-10T21:54:29.063Z,14.18
2023-06-10T21:56:56.080Z,13.10
2023-06-10T21:59:23.576Z,14.57
2023-06-10T22:01:50.909Z,12.43
2023-06-10T22:04:17.850Z,12.52
2023-06-10T22:06:45.456Z,14.07
2023-06-10T22:09:12.277Z,11.50
2023-06-10T22:11:39.150Z,13.90
2023-06-10T22:14:06.355Z,13.30
2023-06-10T22:16:33.289Z,11.77
2023-06-10T22:19:00.221Z,12.07
2023-06-10T22:21:27.280Z,12.15
2023-06-10T22:23:54.442Z,13.13
2023-06-10T22:26:21.804Z,12.15
2023-06-10T22:28:48.755Z,12.13
2023-06-10T22:31:15.755Z,11.95
2023-06-10T22:33:42.680Z,13.10
2023-06-10T22:36:09.570Z,23.00
2023-06-10T22:38:36.411Z,16.17
2023-06-10T22:41:04.044Z,21.55
2023-06-10T22:43:30.885Z,14.80
2023-06-10T22:45:57.760Z,15.18
2023-06-10T22:48:24.696Z,15.10
2023-06-10T22:50:51.831Z,14.05
2023-06-10T22:53:19.046Z,15.10
2023-06-10T22:55:46.026Z,12.65
2023-06-10T22:58:12.884Z,16.27
2023-06-10T23:00:39.704Z,13.38
2023-06-10T23:03:06.573Z,14.43
2023-06-10T23:05:33.512Z,11.52
2023-06-10T23:08:00.398Z,12.02
2023-06-10T23:10:27.269Z,11.57
2023-06-10T23:12:54.154Z,12.52
2023-06-10T23:15:20.997Z,11.55
2023-06-10T23:17:49.510Z,14.60
2023-06-10T23:20:21.023Z,10.57
2023-06-10T23:22:53.045Z,13.25
2023-06-10T23:25:26.172Z,11.48
2023-06-10T23:27:53.296Z,10.43
2023-06-10T23:30:20.330Z,14.18
2023-06-10T23:32:47.468Z,12.00
2023-06-10T23:35:20.095Z,11.60
2023-06-10T23:37:47.900Z,11.63
2023-06-10T23:40:15.122Z,13.13
2023-06-10T23:42:41.956Z,12.00
2023-06-10T23:45:09.253Z,12.30
2023-06-10T23:47:38.039Z,12.43
2023-06-10T23:50:05.702Z,13.07
2023-06-10T23:52:32.604Z,10.18
2023-06-10T23:55:00.151Z,12.55
2023-06-10T23:57:27.039Z,11.10
2023-06-10T23:59:53.907Z,13.13
